sensor_id;sensor_type;location;lat;lon;timestamp;temperature;humidity
7512;DHT22;9999;48.780;9.146;2022-07-18T00:00:17;19.80;56.70
7512;DHT22;9999;48.780;9.146;2022-07-18T00:02:44;19.80;57.10
7512;DHT22;9999;48.780;9.146;2022-07-18T00:05:11;19.80;57.10
7512;DHT22;9999;48.780;9.146;2022-07-18T00:07:37;19.80;56.40
7512;DHT22;9999;48.780;9.146;2022-07-18T00:10:05;19.80;57.00
7512;DHT22;9999;48.780;9.146;2022-07-18T00:12:33;19.70;57.20
7512;DHT22;9999;48.780;9.146;2022-07-18T00:15:00;19.70;55.90
7512;DHT22;9999;48.780;9.146;2022-07-18T00:17:27;19.60;57.60
7512;DHT22;9999;48.780;9.146;2022-07-18T00:19:53;19.40;57.60
7512;DHT22;9999;48.780;9.146;2022-07-18T00:22:20;19.40;56.30
7512;DHT22;9999;48.780;9.146;2022-07-18T00:24:47;19.40;56.90
7512;DHT22;9999;48.780;9.146;2022-07-18T00:27:14;19.40;55.10
7512;DHT22;9999;48.780;9.146;2022-07-18T00:29:42;19.40;56.40
7512;DHT22;9999;48.780;9.146;2022-07-18T00:32:09;19.50;58.00
7512;DHT22;9999;48.780;9.146;2022-07-18T00:34:35;19.50;58.90
7512;DHT22;9999;48.780;9.146;2022-07-18T00:37:03;19.40;57.90
7512;DHT22;9999;48.780;9.146;2022-07-18T00:39:30;19.40;55.80
7512;DHT22;9999;48.780;9.146;2022-07-18T00:41:57;19.40;59.10
7512;DHT22;9999;48.780;9.146;2022-07-18T00:44:25;19.40;56.50
7512;DHT22;9999;48.780;9.146;2022-07-18T00:46:57;19.40;57.20
7512;DHT22;9999;48.780;9.146;2022-07-18T00:49:24;19.30;58.40
7512;DHT22;9999;48.780;9.146;2022-07-18T00:51:51;19.40;58.60
7512;DHT22;9999;48.780;9.146;2022-07-18T00:54:18;19.30;57.70
7512;DHT22;9999;48.780;9.146;2022-07-18T00:56:46;19.20;56.80
7512;DHT22;9999;48.780;9.146;2022-07-18T00:59:14;19.10;55.00
7512;DHT22;9999;48.780;9.146;2022-07-18T01:01:40;19.10;54.50
7512;DHT22;9999;48.780;9.146;2022-07-18T01:04:14;18.90;54.20
7512;DHT22;9999;48.780;9.146;2022-07-18T01:06:42;18.90;55.60
7512;DHT22;9999;48.780;9.146;2022-07-18T01:09:09;18.90;56.20
7512;DHT22;9999;48.780;9.146;2022-07-18T01:11:36;18.90;57.60
7512;DHT22;9999;48.780;9.146;2022-07-18T01:14:04;18.90;57.30
7512;DHT22;9999;48.780;9.146;2022-07-18T01:16:31;18.90;57.50
7512;DHT22;9999;48.780;9.146;2022-07-18T01:18:58;18.90;58.10
7512;DHT22;9999;48.780;9.146;2022-07-18T01:21:26;18.90;57.40
7512;DHT22;9999;48.780;9.146;2022-07-18T01:23:53;18.90;57.00
7512;DHT22;9999;48.780;9.146;2022-07-18T01:26:20;18.90;59.10
7512;DHT22;9999;48.780;9.146;2022-07-18T01:28:47;18.70;58.30
7512;DHT22;9999;48.780;9.146;2022-07-18T01:31:14;18.80;59.90
7512;DHT22;9999;48.780;9.146;2022-07-18T01:33:42;18.70;61.00
7512;DHT22;9999;48.780;9.146;2022-07-18T01:36:09;18.70;59.50
7512;DHT22;9999;48.780;9.146;2022-07-18T01:38:37;18.50;57.50
7512;DHT22;9999;48.780;9.146;2022-07-18T01:41:05;18.50;57.90
7512;DHT22;9999;48.780;9.146;2022-07-18T01:43:32;18.50;57.40
7512;DHT22;9999;48.780;9.146;2022-07-18T01:46:00;18.50;59.00
7512;DHT22;9999;48.780;9.146;2022-07-18T01:48:28;18.50;60.70
7512;DHT22;9999;48.780;9.146;2022-07-18T01:50:55;18.50;60.00
7512;DHT22;9999;48.780;9.146;2022-07-18T01:53:21;18.50;60.50
7512;DHT22;9999;48.780;9.146;2022-07-18T01:55:51;18.60;60.00
7512;DHT22;9999;48.780;9.146;2022-07-18T01:58:17;18.50;62.80
7512;DHT22;9999;48.780;9.146;2022-07-18T02:00:44;18.50;61.90
7512;DHT22;9999;48.780;9.146;2022-07-18T02:03:11;18.50;61.50
7512;DHT22;9999;48.780;9.146;2022-07-18T02:05:38;18.40;62.60
7512;DHT22;9999;48.780;9.146;2022-07-18T02:08:05;18.40;62.40
7512;DHT22;9999;48.780;9.146;2022-07-18T02:10:31;18.40;63.70
7512;DHT22;9999;48.780;9.146;2022-07-18T02:13:00;18.40;63.70
7512;DHT22;9999;48.780;9.146;2022-07-18T02:15:26;18.30;61.40
7512;DHT22;9999;48.780;9.146;2022-07-18T02:17:53;18.30;63.10
7512;DHT22;9999;48.780;9.146;2022-07-18T02:20:20;18.30;63.40
7512;DHT22;9999;48.780;9.146;2022-07-18T02:22:47;18.20;64.70
7512;DHT22;9999;48.780;9.146;2022-07-18T02:25:14;18.20;65.80
7512;DHT22;9999;48.780;9.146;2022-07-18T02:27:41;18.20;65.10
7512;DHT22;9999;48.780;9.146;2022-07-18T02:30:10;18.20;64.90
7512;DHT22;9999;48.780;9.146;2022-07-18T02:32:37;18.10;63.20
7512;DHT22;9999;48.780;9.146;2022-07-18T02:35:05;18.00;63.00
7512;DHT22;9999;48.780;9.146;2022-07-18T02:37:33;18.00;64.90
7512;DHT22;9999;48.780;9.146;2022-07-18T02:39:59;17.90;63.00
7512;DHT22;9999;48.780;9.146;2022-07-18T02:42:26;17.80;63.70
7512;DHT22;9999;48.780;9.146;2022-07-18T02:44:53;17.70;64.00
7512;DHT22;9999;48.780;9.146;2022-07-18T02:47:21;17.70;63.80
7512;DHT22;9999;48.780;9.146;2022-07-18T02:49:48;17.70;64.50
7512;DHT22;9999;48.780;9.146;2022-07-18T02:52:15;17.70;65.00
7512;DHT22;9999;48.780;9.146;2022-07-18T02:54:42;17.70;65.90
7512;DHT22;9999;48.780;9.146;2022-07-18T02:57:09;17.60;66.30
7512;DHT22;9999;48.780;9.146;2022-07-18T02:59:35;17.60;67.50
7512;DHT22;9999;48.780;9.146;2022-07-18T03:02:02;17.60;68.80
7512;DHT22;9999;48.780;9.146;2022-07-18T03:04:30;17.70;68.70
7512;DHT22;9999;48.780;9.146;2022-07-18T03:06:58;17.70;71.60
7512;DHT22;9999;48.780;9.146;2022-07-18T03:09:25;17.70;70.50
7512;DHT22;9999;48.780;9.146;2022-07-18T03:11:53;17.70;72.60
7512;DHT22;9999;48.780;9.146;2022-07-18T03:14:20;17.70;72.90
7512;DHT22;9999;48.780;9.146;2022-07-18T03:16:47;17.60;73.20
7512;DHT22;9999;48.780;9.146;2022-07-18T03:19:14;17.60;74.30
7512;DHT22;9999;48.780;9.146;2022-07-18T03:21:42;17.60;74.90
7512;DHT22;9999;48.780;9.146;2022-07-18T03:24:09;17.50;75.10
7512;DHT22;9999;48.780;9.146;2022-07-18T03:26:37;17.40;74.90
7512;DHT22;9999;48.780;9.146;2022-07-18T03:29:04;17.50;74.90
7512;DHT22;9999;48.780;9.146;2022-07-18T03:31:31;17.40;74.30
7512;DHT22;9999;48.780;9.146;2022-07-18T03:33:58;17.40;75.30
7512;DHT22;9999;48.780;9.146;2022-07-18T03:36:25;17.40;76.10
7512;DHT22;9999;48.780;9.146;2022-07-18T03:38:53;17.40;76.70
7512;DHT22;9999;48.780;9.146;2022-07-18T03:41:20;17.40;76.70
7512;DHT22;9999;48.780;9.146;2022-07-18T03:43:47;17.40;78.50
7512;DHT22;9999;48.780;9.146;2022-07-18T03:46:13;17.40;78.30
7512;DHT22;9999;48.780;9.146;2022-07-18T03:48:40;17.30;78.30
7512;DHT22;9999;48.780;9.146;2022-07-18T03:51:07;17.20;78.70
7512;DHT22;9999;48.780;9.146;2022-07-18T03:53:34;17.30;78.80
7512;DHT22;9999;48.780;9.146;2022-07-18T03:56:02;17.30;82.40
7512;DHT22;9999;48.780;9.146;2022-07-18T03:58:29;17.30;84.50
7512;DHT22;9999;48.780;9.146;2022-07-18T04:00:56;17.30;82.10
7512;DHT22;9999;48.780;9.146;2022-07-18T04:03:23;17.30;87.40
7512;DHT22;9999;48.780;9.146;2022-07-18T04:05:50;17.30;86.10
7512;DHT22;9999;48.780;9.146;2022-07-18T04:08:17;17.30;88.70
7512;DHT22;9999;48.780;9.146;2022-07-18T04:10:44;17.30;86.70
7512;DHT22;9999;48.780;9.146;2022-07-18T04:13:12;17.20;87.70
7512;DHT22;9999;48.780;9.146;2022-07-18T04:15:39;17.20;90.70
7512;DHT22;9999;48.780;9.146;2022-07-18T04:18:07;17.20;89.10
7512;DHT22;9999;48.780;9.146;2022-07-18T04:20:36;17.10;91.60
7512;DHT22;9999;48.780;9.146;2022-07-18T04:23:05;17.20;90.70
7512;DHT22;9999;48.780;9.146;2022-07-18T04:25:35;17.20;91.80
7512;DHT22;9999;48.780;9.146;2022-07-18T04:28:03;17.20;92.30
7512;DHT22;9999;48.780;9.146;2022-07-18T04:30:32;17.20;91.50
7512;DHT22;9999;48.780;9.146;2022-07-18T04:33:01;17.20;92.10
7512;DHT22;9999;48.780;9.146;2022-07-18T04:35:28;17.20;94.80
7512;DHT22;9999;48.780;9.146;2022-07-18T04:37:55;17.20;93.00
7512;DHT22;9999;48.780;9.146;2022-07-18T04:40:21;17.10;93.50
7512;DHT22;9999;48.780;9.146;2022-07-18T04:42:49;17.10;96.70
7512;DHT22;9999;48.780;9.146;2022-07-18T04:45:16;17.20;99.30
7512;DHT22;9999;48.780;9.146;2022-07-18T04:47:48;17.20;98.00
7512;DHT22;9999;48.780;9.146;2022-07-18T04:50:17;17.10;98.70
7512;DHT22;9999;48.780;9.146;2022-07-18T04:52:46;17.10;99.30
7512;DHT22;9999;48.780;9.146;2022-07-18T04:55:14;17.10;99.90
7512;DHT22;9999;48.780;9.146;2022-07-18T04:57:42;17.10;99.90
7512;DHT22;9999;48.780;9.146;2022-07-18T05:00:11;17.00;99.90
7512;DHT22;9999;48.780;9.146;2022-07-18T05:02:40;17.00;99.90
7512;DHT22;9999;48.780;9.146;2022-07-18T05:05:09;17.10;99.90
7512;DHT22;9999;48.780;9.146;2022-07-18T05:07:37;17.10;99.90
7512;DHT22;9999;48.780;9.146;2022-07-18T05:10:06;17.10;99.90
7512;DHT22;9999;48.780;9.146;2022-07-18T05:12:34;17.10;99.90
7512;DHT22;9999;48.780;9.146;2022-07-18T05:15:01;17.20;99.90
7512;DHT22;9999;48.780;9.146;2022-07-18T05:17:28;17.20;99.90
7512;DHT22;9999;48.780;9.146;2022-07-18T05:19:55;17.20;99.90
7512;DHT22;9999;48.780;9.146;2022-07-18T05:22:23;17.20;99.90
7512;DHT22;9999;48.780;9.146;2022-07-18T05:24:50;17.20;99.90
7512;DHT22;9999;48.780;9.146;2022-07-18T05:27:17;17.20;99.90
7512;DHT22;9999;48.780;9.146;2022-07-18T05:29:44;17.20;99.90
7512;DHT22;9999;48.780;9.146;2022-07-18T05:32:10;17.30;99.90
7512;DHT22;9999;48.780;9.146;2022-07-18T05:34:37;17.30;99.90
7512;DHT22;9999;48.780;9.146;2022-07-18T05:37:05;17.30;99.90
7512;DHT22;9999;48.780;9.146;2022-07-18T05:39:33;17.30;99.90
7512;DHT22;9999;48.780;9.146;2022-07-18T05:42:01;17.30;99.90
7512;DHT22;9999;48.780;9.146;2022-07-18T05:44:28;17.40;99.90
7512;DHT22;9999;48.780;9.146;2022-07-18T05:46:55;17.40;99.90
7512;DHT22;9999;48.780;9.146;2022-07-18T05:49:22;17.40;99.90
7512;DHT22;9999;48.780;9.146;2022-07-18T05:51:48;17.50;99.90
7512;DHT22;9999;48.780;9.146;2022-07-18T05:54:15;17.50;99.90
7512;DHT22;9999;48.780;9.146;2022-07-18T05:56:46;17.60;99.90
7512;DHT22;9999;48.780;9.146;2022-07-18T05:59:14;17.60;99.90
7512;DHT22;9999;48.780;9.146;2022-07-18T06:01:41;17.70;99.90
7512;DHT22;9999;48.780;9.146;2022-07-18T06:04:08;17.80;99.90
7512;DHT22;9999;48.780;9.146;2022-07-18T06:06:35;17.90;99.90
7512;DHT22;9999;48.780;9.146;2022-07-18T06:09:02;18.00;99.90
7512;DHT22;9999;48.780;9.146;2022-07-18T06:11:29;18.10;99.90
7512;DHT22;9999;48.780;9.146;2022-07-18T06:13:58;18.20;99.90
7512;DHT22;9999;48.780;9.146;2022-07-18T06:16:25;18.30;99.90
7512;DHT22;9999;48.780;9.146;2022-07-18T06:18:51;18.40;99.90
7512;DHT22;9999;48.780;9.146;2022-07-18T06:21:18;18.50;99.90
7512;DHT22;9999;48.780;9.146;2022-07-18T06:23:45;18.70;99.90
7512;DHT22;9999;48.780;9.146;2022-07-18T06:26:12;18.90;99.90
7512;DHT22;9999;48.780;9.146;2022-07-18T06:28:39;19.00;99.90
7512;DHT22;9999;48.780;9.146;2022-07-18T06:31:07;19.10;99.90
7512;DHT22;9999;48.780;9.146;2022-07-18T06:33:34;19.30;99.90
7512;DHT22;9999;48.780;9.146;2022-07-18T06:36:00;19.40;99.90
7512;DHT22;9999;48.780;9.146;2022-07-18T06:38:27;19.50;99.90
7512;DHT22;9999;48.780;9.146;2022-07-18T06:40:54;19.80;99.90
7512;DHT22;9999;48.780;9.146;2022-07-18T06:43:21;19.90;99.90
7512;DHT22;9999;48.780;9.146;2022-07-18T06:45:48;20.10;99.90
7512;DHT22;9999;48.780;9.146;2022-07-18T06:48:18;20.40;99.90
7512;DHT22;9999;48.780;9.146;2022-07-18T06:50:45;20.60;98.20
7512;DHT22;9999;48.780;9.146;2022-07-18T06:53:12;20.80;99.90
7512;DHT22;9999;48.780;9.146;2022-07-18T06:55:39;21.00;97.30
7512;DHT22;9999;48.780;9.146;2022-07-18T06:58:05;21.10;97.20
7512;DHT22;9999;48.780;9.146;2022-07-18T07:00:32;21.20;95.90
7512;DHT22;9999;48.780;9.146;2022-07-18T07:02:59;21.40;98.20
7512;DHT22;9999;48.780;9.146;2022-07-18T07:05:27;21.70;96.90
7512;DHT22;9999;48.780;9.146;2022-07-18T07:07:54;21.90;96.60
7512;DHT22;9999;48.780;9.146;2022-07-18T07:10:20;22.20;94.60
7512;DHT22;9999;48.780;9.146;2022-07-18T07:12:49;22.50;93.80
7512;DHT22;9999;48.780;9.146;2022-07-18T07:15:20;22.40;92.70
7512;DHT22;9999;48.780;9.146;2022-07-18T07:17:47;22.80;93.50
7512;DHT22;9999;48.780;9.146;2022-07-18T07:20:15;23.10;91.90
7512;DHT22;9999;48.780;9.146;2022-07-18T07:22:45;23.40;90.40
7512;DHT22;9999;48.780;9.146;2022-07-18T07:25:13;23.70;89.90
7512;DHT22;9999;48.780;9.146;2022-07-18T07:27:40;24.10;88.00
7512;DHT22;9999;48.780;9.146;2022-07-18T07:30:08;24.30;87.20
7512;DHT22;9999;48.780;9.146;2022-07-18T07:32:35;24.70;85.00
7512;DHT22;9999;48.780;9.146;2022-07-18T07:35:03;24.80;84.40
7512;DHT22;9999;48.780;9.146;2022-07-18T07:37:32;25.30;83.50
7512;DHT22;9999;48.780;9.146;2022-07-18T07:40:00;25.60;76.90
7512;DHT22;9999;48.780;9.146;2022-07-18T07:42:27;25.90;74.90
7512;DHT22;9999;48.780;9.146;2022-07-18T07:44:53;25.90;73.60
7512;DHT22;9999;48.780;9.146;2022-07-18T07:47:20;26.20;74.60
7512;DHT22;9999;48.780;9.146;2022-07-18T07:49:47;26.50;70.90
7512;DHT22;9999;48.780;9.146;2022-07-18T07:52:14;26.80;69.60
7512;DHT22;9999;48.780;9.146;2022-07-18T07:54:42;27.10;68.50
7512;DHT22;9999;48.780;9.146;2022-07-18T07:57:12;27.30;69.60
7512;DHT22;9999;48.780;9.146;2022-07-18T07:59:39;27.50;70.00
7512;DHT22;9999;48.780;9.146;2022-07-18T08:02:06;27.60;63.30
7512;DHT22;9999;48.780;9.146;2022-07-18T08:04:32;27.60;62.20
7512;DHT22;9999;48.780;9.146;2022-07-18T08:06:59;27.90;65.80
7512;DHT22;9999;48.780;9.146;2022-07-18T08:09:26;27.80;61.50
7512;DHT22;9999;48.780;9.146;2022-07-18T08:11:53;27.90;62.90
7512;DHT22;9999;48.780;9.146;2022-07-18T08:14:21;27.90;62.10
7512;DHT22;9999;48.780;9.146;2022-07-18T08:16:48;27.80;64.20
7512;DHT22;9999;48.780;9.146;2022-07-18T08:19:15;28.10;61.90
7512;DHT22;9999;48.780;9.146;2022-07-18T08:21:42;28.00;59.60
7512;DHT22;9999;48.780;9.146;2022-07-18T08:24:08;28.00;62.20
7512;DHT22;9999;48.780;9.146;2022-07-18T08:26:35;28.40;60.90
7512;DHT22;9999;48.780;9.146;2022-07-18T08:29:04;28.60;59.30
7512;DHT22;9999;48.780;9.146;2022-07-18T08:31:33;28.80;57.00
7512;DHT22;9999;48.780;9.146;2022-07-18T08:33:59;29.00;56.80
7512;DHT22;9999;48.780;9.146;2022-07-18T08:36:26;28.80;53.80
7512;DHT22;9999;48.780;9.146;2022-07-18T08:38:53;29.00;56.10
7512;DHT22;9999;48.780;9.146;2022-07-18T08:41:22;29.20;57.30
7512;DHT22;9999;48.780;9.146;2022-07-18T08:43:49;29.30;53.10
7512;DHT22;9999;48.780;9.146;2022-07-18T08:46:19;29.50;55.40
7512;DHT22;9999;48.780;9.146;2022-07-18T08:48:48;29.90;53.80
7512;DHT22;9999;48.780;9.146;2022-07-18T08:51:15;30.00;54.40
7512;DHT22;9999;48.780;9.146;2022-07-18T08:53:41;29.80;53.80
7512;DHT22;9999;48.780;9.146;2022-07-18T08:56:08;30.00;52.00
7512;DHT22;9999;48.780;9.146;2022-07-18T08:58:35;29.90;50.90
7512;DHT22;9999;48.780;9.146;2022-07-18T09:01:02;29.90;53.30
7512;DHT22;9999;48.780;9.146;2022-07-18T09:03:29;30.20;52.60
7512;DHT22;9999;48.780;9.146;2022-07-18T09:06:06;30.20;53.60
7512;DHT22;9999;48.780;9.146;2022-07-18T09:08:33;30.40;52.40
7512;DHT22;9999;48.780;9.146;2022-07-18T09:11:02;30.30;51.60
7512;DHT22;9999;48.780;9.146;2022-07-18T09:13:37;30.40;51.90
7512;DHT22;9999;48.780;9.146;2022-07-18T09:16:06;30.50;52.60
7512;DHT22;9999;48.780;9.146;2022-07-18T09:18:37;30.30;50.60
7512;DHT22;9999;48.780;9.146;2022-07-18T09:21:07;30.50;50.10
7512;DHT22;9999;48.780;9.146;2022-07-18T09:23:36;30.40;48.20
7512;DHT22;9999;48.780;9.146;2022-07-18T09:26:04;30.40;48.90
7512;DHT22;9999;48.780;9.146;2022-07-18T09:28:45;30.40;50.80
7512;DHT22;9999;48.780;9.146;2022-07-18T09:31:19;30.70;48.20
7512;DHT22;9999;48.780;9.146;2022-07-18T09:33:52;30.80;47.70
7512;DHT22;9999;48.780;9.146;2022-07-18T09:36:20;30.90;47.50
7512;DHT22;9999;48.780;9.146;2022-07-18T09:38:47;30.90;46.80
7512;DHT22;9999;48.780;9.146;2022-07-18T09:41:14;31.20;49.20
7512;DHT22;9999;48.780;9.146;2022-07-18T09:43:41;31.40;46.30
7512;DHT22;9999;48.780;9.146;2022-07-18T09:46:08;31.70;48.90
7512;DHT22;9999;48.780;9.146;2022-07-18T09:48:35;31.60;47.00
7512;DHT22;9999;48.780;9.146;2022-07-18T09:51:04;31.60;44.80
7512;DHT22;9999;48.780;9.146;2022-07-18T09:53:34;31.80;46.20
7512;DHT22;9999;48.780;9.146;2022-07-18T09:56:02;31.50;45.90
7512;DHT22;9999;48.780;9.146;2022-07-18T09:58:31;31.80;44.80
7512;DHT22;9999;48.780;9.146;2022-07-18T10:01:01;32.00;43.20
7512;DHT22;9999;48.780;9.146;2022-07-18T10:03:28;31.90;42.30
7512;DHT22;9999;48.780;9.146;2022-07-18T10:05:56;31.80;40.00
7512;DHT22;9999;48.780;9.146;2022-07-18T10:08:25;31.80;41.50
7512;DHT22;9999;48.780;9.146;2022-07-18T10:10:54;31.70;41.20
7512;DHT22;9999;48.780;9.146;2022-07-18T10:13:22;31.90;42.50
7512;DHT22;9999;48.780;9.146;2022-07-18T10:15:50;32.10;39.30
7512;DHT22;9999;48.780;9.146;2022-07-18T10:18:19;32.30;41.60
7512;DHT22;9999;48.780;9.146;2022-07-18T10:20:49;32.20;40.00
7512;DHT22;9999;48.780;9.146;2022-07-18T10:23:20;32.30;41.60
7512;DHT22;9999;48.780;9.146;2022-07-18T10:26:07;31.70;40.30
7512;DHT22;9999;48.780;9.146;2022-07-18T10:28:34;31.60;42.00
7512;DHT22;9999;48.780;9.146;2022-07-18T10:31:12;32.00;40.10
7512;DHT22;9999;48.780;9.146;2022-07-18T10:33:41;32.00;39.60
7512;DHT22;9999;48.780;9.146;2022-07-18T10:36:13;31.90;40.30
7512;DHT22;9999;48.780;9.146;2022-07-18T10:39:03;32.10;42.30
7512;DHT22;9999;48.780;9.146;2022-07-18T10:41:31;32.00;40.90
7512;DHT22;9999;48.780;9.146;2022-07-18T10:44:00;32.20;40.80
7512;DHT22;9999;48.780;9.146;2022-07-18T10:47:07;32.30;42.20
7512;DHT22;9999;48.780;9.146;2022-07-18T10:52:56;32.10;37.70
7512;DHT22;9999;48.780;9.146;2022-07-18T10:55:31;32.10;37.50
7512;DHT22;9999;48.780;9.146;2022-07-18T10:58:21;32.30;40.00
7512;DHT22;9999;48.780;9.146;2022-07-18T11:00:52;32.50;40.40
7512;DHT22;9999;48.780;9.146;2022-07-18T11:03:26;32.60;38.10
7512;DHT22;9999;48.780;9.146;2022-07-18T11:05:55;32.60;40.00
7512;DHT22;9999;48.780;9.146;2022-07-18T11:08:22;33.00;38.20
7512;DHT22;9999;48.780;9.146;2022-07-18T11:11:14;33.20;37.60
7512;DHT22;9999;48.780;9.146;2022-07-18T11:13:46;33.20;35.80
7512;DHT22;9999;48.780;9.146;2022-07-18T11:16:17;33.40;37.70
7512;DHT22;9999;48.780;9.146;2022-07-18T11:19:16;33.30;36.00
7512;DHT22;9999;48.780;9.146;2022-07-18T11:21:44;33.30;38.10
7512;DHT22;9999;48.780;9.146;2022-07-18T11:24:12;33.20;37.90
7512;DHT22;9999;48.780;9.146;2022-07-18T11:26:44;33.30;38.30
7512;DHT22;9999;48.780;9.146;2022-07-18T11:29:15;33.50;35.70
7512;DHT22;9999;48.780;9.146;2022-07-18T11:31:44;33.60;36.30
7512;DHT22;9999;48.780;9.146;2022-07-18T11:34:11;33.40;34.00
7512;DHT22;9999;48.780;9.146;2022-07-18T11:36:39;33.60;35.20
7512;DHT22;9999;48.780;9.146;2022-07-18T11:39:07;33.20;34.30
7512;DHT22;9999;48.780;9.146;2022-07-18T11:41:36;33.20;35.90
7512;DHT22;9999;48.780;9.146;2022-07-18T11:44:03;33.70;35.50
7512;DHT22;9999;48.780;9.146;2022-07-18T11:46:32;33.60;33.80
7512;DHT22;9999;48.780;9.146;2022-07-18T11:49:00;33.50;35.30
7512;DHT22;9999;48.780;9.146;2022-07-18T11:51:34;33.80;34.50
7512;DHT22;9999;48.780;9.146;2022-07-18T11:54:01;33.50;34.40
7512;DHT22;9999;48.780;9.146;2022-07-18T11:56:28;33.50;33.10
7512;DHT22;9999;48.780;9.146;2022-07-18T11:58:55;33.50;33.70
7512;DHT22;9999;48.780;9.146;2022-07-18T12:01:32;33.60;33.70
7512;DHT22;9999;48.780;9.146;2022-07-18T12:03:59;33.90;33.00
7512;DHT22;9999;48.780;9.146;2022-07-18T12:06:28;33.80;32.70
7512;DHT22;9999;48.780;9.146;2022-07-18T12:08:56;33.70;32.70
7512;DHT22;9999;48.780;9.146;2022-07-18T12:11:27;33.70;31.00
7512;DHT22;9999;48.780;9.146;2022-07-18T12:13:55;33.70;31.80
7512;DHT22;9999;48.780;9.146;2022-07-18T12:16:31;33.70;31.40
7512;DHT22;9999;48.780;9.146;2022-07-18T12:19:01;33.50;32.10
7512;DHT22;9999;48.780;9.146;2022-07-18T12:21:42;33.40;31.90
7512;DHT22;9999;48.780;9.146;2022-07-18T12:24:29;33.80;34.10
7512;DHT22;9999;48.780;9.146;2022-07-18T12:27:13;33.90;32.60
7512;DHT22;9999;48.780;9.146;2022-07-18T12:30:00;33.70;32.20
7512;DHT22;9999;48.780;9.146;2022-07-18T12:32:36;33.90;31.70
7512;DHT22;9999;48.780;9.146;2022-07-18T12:35:04;34.10;32.00
7512;DHT22;9999;48.780;9.146;2022-07-18T12:37:32;33.70;31.90
7512;DHT22;9999;48.780;9.146;2022-07-18T12:40:02;33.90;32.60
7512;DHT22;9999;48.780;9.146;2022-07-18T12:42:31;34.20;32.20
7512;DHT22;9999;48.780;9.146;2022-07-18T12:44:58;34.30;32.40
7512;DHT22;9999;48.780;9.146;2022-07-18T12:47:25;34.40;32.20
7512;DHT22;9999;48.780;9.146;2022-07-18T12:49:54;34.50;32.40
7512;DHT22;9999;48.780;9.146;2022-07-18T12:52:21;34.50;32.10
7512;DHT22;9999;48.780;9.146;2022-07-18T12:54:48;34.40;31.50
7512;DHT22;9999;48.780;9.146;2022-07-18T12:57:15;34.20;31.30
7512;DHT22;9999;48.780;9.146;2022-07-18T12:59:42;34.10;30.90
7512;DHT22;9999;48.780;9.146;2022-07-18T13:02:10;34.10;32.50
7512;DHT22;9999;48.780;9.146;2022-07-18T13:04:37;34.20;33.00
7512;DHT22;9999;48.780;9.146;2022-07-18T13:07:05;34.10;31.60
7512;DHT22;9999;48.780;9.146;2022-07-18T13:09:32;34.20;33.90
7512;DHT22;9999;48.780;9.146;2022-07-18T13:11:59;34.50;30.90
7512;DHT22;9999;48.780;9.146;2022-07-18T13:14:26;34.50;34.60
7512;DHT22;9999;48.780;9.146;2022-07-18T13:16:53;34.60;32.50
7512;DHT22;9999;48.780;9.146;2022-07-18T13:19:21;34.60;34.30
7512;DHT22;9999;48.780;9.146;2022-07-18T13:21:48;34.70;34.50
7512;DHT22;9999;48.780;9.146;2022-07-18T13:24:17;34.80;32.60
7512;DHT22;9999;48.780;9.146;2022-07-18T13:26:43;35.00;33.40
7512;DHT22;9999;48.780;9.146;2022-07-18T13:29:10;34.90;34.60
7512;DHT22;9999;48.780;9.146;2022-07-18T13:31:37;34.90;34.20
7512;DHT22;9999;48.780;9.146;2022-07-18T13:34:04;34.60;30.90
7512;DHT22;9999;48.780;9.146;2022-07-18T13:36:31;34.60;31.90
7512;DHT22;9999;48.780;9.146;2022-07-18T13:38:59;34.50;32.40
7512;DHT22;9999;48.780;9.146;2022-07-18T13:41:28;34.60;34.60
7512;DHT22;9999;48.780;9.146;2022-07-18T13:43:55;34.90;32.20
7512;DHT22;9999;48.780;9.146;2022-07-18T13:46:22;34.70;33.80
7512;DHT22;9999;48.780;9.146;2022-07-18T13:48:49;34.80;33.30
7512;DHT22;9999;48.780;9.146;2022-07-18T13:51:16;34.60;31.50
7512;DHT22;9999;48.780;9.146;2022-07-18T13:53:43;34.40;31.70
7512;DHT22;9999;48.780;9.146;2022-07-18T13:56:10;34.40;31.70
7512;DHT22;9999;48.780;9.146;2022-07-18T13:58:38;34.10;31.00
7512;DHT22;9999;48.780;9.146;2022-07-18T14:01:05;34.10;32.00
7512;DHT22;9999;48.780;9.146;2022-07-18T14:03:32;33.90;31.80
7512;DHT22;9999;48.780;9.146;2022-07-18T14:05:59;34.10;32.40
7512;DHT22;9999;48.780;9.146;2022-07-18T14:08:26;34.20;30.80
7512;DHT22;9999;48.780;9.146;2022-07-18T14:10:53;34.20;32.20
7512;DHT22;9999;48.780;9.146;2022-07-18T14:13:19;34.30;32.70
7512;DHT22;9999;48.780;9.146;2022-07-18T14:15:48;34.30;31.60
7512;DHT22;9999;48.780;9.146;2022-07-18T14:18:16;34.50;32.90
7512;DHT22;9999;48.780;9.146;2022-07-18T14:20:43;34.70;33.70
7512;DHT22;9999;48.780;9.146;2022-07-18T14:23:10;34.70;30.40
7512;DHT22;9999;48.780;9.146;2022-07-18T14:25:37;34.70;31.80
7512;DHT22;9999;48.780;9.146;2022-07-18T14:28:04;34.80;31.30
7512;DHT22;9999;48.780;9.146;2022-07-18T14:30:32;34.80;32.20
7512;DHT22;9999;48.780;9.146;2022-07-18T14:33:00;34.80;31.60
7512;DHT22;9999;48.780;9.146;2022-07-18T14:35:27;34.40;31.00
7512;DHT22;9999;48.780;9.146;2022-07-18T14:37:53;33.90;31.50
7512;DHT22;9999;48.780;9.146;2022-07-18T14:40:20;33.80;31.90
7512;DHT22;9999;48.780;9.146;2022-07-18T14:42:48;34.00;32.70
7512;DHT22;9999;48.780;9.146;2022-07-18T14:45:16;34.10;32.70
7512;DHT22;9999;48.780;9.146;2022-07-18T14:47:43;34.10;32.70
7512;DHT22;9999;48.780;9.146;2022-07-18T14:50:11;33.90;32.20
7512;DHT22;9999;48.780;9.146;2022-07-18T14:52:39;33.80;32.80
7512;DHT22;9999;48.780;9.146;2022-07-18T14:55:07;33.80;34.50
7512;DHT22;9999;48.780;9.146;2022-07-18T14:57:35;34.10;32.40
7512;DHT22;9999;48.780;9.146;2022-07-18T15:00:04;34.20;33.10
7512;DHT22;9999;48.780;9.146;2022-07-18T15:02:31;34.20;33.50
7512;DHT22;9999;48.780;9.146;2022-07-18T15:04:58;34.30;34.30
7512;DHT22;9999;48.780;9.146;2022-07-18T15:07:26;34.30;31.80
7512;DHT22;9999;48.780;9.146;2022-07-18T15:09:53;34.10;32.60
7512;DHT22;9999;48.780;9.146;2022-07-18T15:12:20;34.00;33.00
7512;DHT22;9999;48.780;9.146;2022-07-18T15:14:47;33.90;33.70
7512;DHT22;9999;48.780;9.146;2022-07-18T15:17:13;33.80;32.70
7512;DHT22;9999;48.780;9.146;2022-07-18T15:19:40;33.50;33.50
7512;DHT22;9999;48.780;9.146;2022-07-18T15:22:07;33.50;35.10
7512;DHT22;9999;48.780;9.146;2022-07-18T15:24:36;33.70;35.40
7512;DHT22;9999;48.780;9.146;2022-07-18T15:27:03;33.80;35.10
7512;DHT22;9999;48.780;9.146;2022-07-18T15:29:30;34.00;35.30
7512;DHT22;9999;48.780;9.146;2022-07-18T15:31:57;33.80;34.00
7512;DHT22;9999;48.780;9.146;2022-07-18T15:34:25;33.70;34.70
7512;DHT22;9999;48.780;9.146;2022-07-18T15:36:52;33.50;33.00
7512;DHT22;9999;48.780;9.146;2022-07-18T15:39:18;33.30;33.40
7512;DHT22;9999;48.780;9.146;2022-07-18T15:41:46;33.40;33.30
7512;DHT22;9999;48.780;9.146;2022-07-18T15:44:13;33.30;34.40
7512;DHT22;9999;48.780;9.146;2022-07-18T15:46:40;33.30;33.40
7512;DHT22;9999;48.780;9.146;2022-07-18T15:49:07;33.30;34.20
7512;DHT22;9999;48.780;9.146;2022-07-18T15:51:34;33.40;34.80
7512;DHT22;9999;48.780;9.146;2022-07-18T15:54:01;33.50;35.00
7512;DHT22;9999;48.780;9.146;2022-07-18T15:56:29;33.70;35.10
7512;DHT22;9999;48.780;9.146;2022-07-18T15:58:57;33.80;35.90
7512;DHT22;9999;48.780;9.146;2022-07-18T16:01:24;33.90;34.50
7512;DHT22;9999;48.780;9.146;2022-07-18T16:03:51;33.80;34.30
7512;DHT22;9999;48.780;9.146;2022-07-18T16:06:17;33.70;33.40
7512;DHT22;9999;48.780;9.146;2022-07-18T16:08:44;33.40;34.20
7512;DHT22;9999;48.780;9.146;2022-07-18T16:11:11;33.20;33.70